createdAt,value
2018-05-18T00:00:09.329Z,14.40
2018-05-18T00:00:42.606Z,12.73
2018-05-18T00:01:15.881Z,11.65
2018-05-18T00:01:49.144Z,16.17
2018-05-18T00:02:22.420Z,14.07
2018-05-18T00:02:56.302Z,16.23
2018-05-18T00:03:29.557Z,14.00
2018-05-18T00:04:03.613Z,15.23
2018-05-18T00:04:36.917Z,13.60
2018-05-18T00:05:10.201Z,16.05
2018-05-18T00:05:43.476Z,12.65
2018-05-18T00:06:16.756Z,16.02
2018-05-18T00:06:50.031Z,12.07
2018-05-18T00:07:23.307Z,13.38
2018-05-18T00:07:56.572Z,14.02
2018-05-18T00:08:29.841Z,12.80
2018-05-18T00:09:03.116Z,14.90
2018-05-18T00:09:36.404Z,19.73
2018-05-18T00:10:09.664Z,16.25
2018-05-18T00:10:43.709Z,11.40
2018-05-18T00:11:17.749Z,12.82
2018-05-18T00:11:51.816Z,13.88
2018-05-18T00:12:25.108Z,17.87
2018-05-18T00:12:58.370Z,16.65
2018-05-18T00:13:31.645Z,12.80
2018-05-18T00:14:04.929Z,13.82
2018-05-18T00:14:38.190Z,16.73
2018-05-18T00:15:11.451Z,15.50
2018-05-18T00:15:44.723Z,19.23
2018-05-18T00:16:17.993Z,16.62
2018-05-18T00:16:51.272Z,15.63
2018-05-18T00:17:24.557Z,16.77
2018-05-18T00:17:57.829Z,13.20
2018-05-18T00:18:31.092Z,12.10
2018-05-18T00:19:05.124Z,11.23
2018-05-18T00:19:38.417Z,17.60
2018-05-18T00:20:26.582Z,15.20
2018-05-18T00:20:59.859Z,14.85
2018-05-18T00:21:33.144Z,12.63
2018-05-18T00:22:06.422Z,12.88
2018-05-18T00:22:39.697Z,11.05
2018-05-18T00:23:12.974Z,14.00
2018-05-18T00:23:46.239Z,15.68
2018-05-18T00:24:20.268Z,16.20
2018-05-18T00:24:53.538Z,18.05
2018-05-18T00:25:26.800Z,9.70
2018-05-18T00:26:00.065Z,20.98
2018-05-18T00:26:33.353Z,18.73
2018-05-18T00:27:06.643Z,16.48
2018-05-18T00:27:39.983Z,14.77
2018-05-18T00:28:13.252Z,16.40
2018-05-18T00:28:47.284Z,20.65
2018-05-18T00:29:20.562Z,12.50
2018-05-18T00:29:53.836Z,14.95
2018-05-18T00:30:27.093Z,16.08
2018-05-18T00:31:01.115Z,14.93
2018-05-18T00:31:34.393Z,17.40
2018-05-18T00:32:07.693Z,19.23
2018-05-18T00:32:40.944Z,11.35
2018-05-18T00:33:14.208Z,17.30
2018-05-18T00:33:48.241Z,20.00
2018-05-18T00:34:21.509Z,17.05
2018-05-18T00:34:54.776Z,18.25
2018-05-18T00:35:28.044Z,12.95
2018-05-18T00:36:01.353Z,20.73
2018-05-18T00:36:34.615Z,16.30
2018-05-18T00:37:07.900Z,16.10
2018-05-18T00:37:41.187Z,16.98
2018-05-18T00:38:14.456Z,14.98
2018-05-18T00:38:47.721Z,14.57
2018-05-18T00:39:21.757Z,12.73
2018-05-18T00:39:55.022Z,18.48
2018-05-18T00:40:28.280Z,19.95
2018-05-18T00:41:02.319Z,14.68
2018-05-18T00:41:35.594Z,16.60
2018-05-18T00:42:08.876Z,17.33
2018-05-18T00:42:42.153Z,15.82
2018-05-18T00:43:15.419Z,13.70
2018-05-18T00:43:48.694Z,11.85
2018-05-18T00:44:21.970Z,17.23
2018-05-18T00:44:55.244Z,15.63
2018-05-18T00:45:29.276Z,18.67
2018-05-18T00:46:02.553Z,14.73
2018-05-18T00:46:35.823Z,10.52
2018-05-18T00:47:09.102Z,11.60
2018-05-18T00:47:42.380Z,15.63
2018-05-18T00:48:15.658Z,17.73
2018-05-18T00:48:48.932Z,20.52
2018-05-18T00:49:22.203Z,15.50
2018-05-18T00:49:55.495Z,15.93
2018-05-18T00:50:28.769Z,19.62
2018-05-18T00:51:02.054Z,21.10
2018-05-18T00:51:35.323Z,18.62
2018-05-18T00:52:08.604Z,13.20
2018-05-18T00:52:42.646Z,17.75
2018-05-18T00:53:15.910Z,15.73
2018-05-18T00:53:49.180Z,12.93
2018-05-18T00:54:22.437Z,15.40
2018-05-18T00:54:55.740Z,16.52
2018-05-18T00:55:40.755Z,15.75
2018-05-18T00:56:14.031Z,18.25
2018-05-18T00:56:47.294Z,18.20
2018-05-18T00:57:20.571Z,14.98
2018-05-18T00:57:53.849Z,16.92
2018-05-18T00:58:27.125Z,14.13
2018-05-18T00:59:00.379Z,8.88
2018-05-18T00:59:33.654Z,16.48
2018-05-18T01:00:06.924Z,15.77
2018-05-18T01:00:40.207Z,19.58
2018-05-18T01:01:13.473Z,15.65
2018-05-18T01:01:46.753Z,16.77
2018-05-18T01:02:20.819Z,15.38
2018-05-18T01:02:54.076Z,18.55
2018-05-18T01:03:27.352Z,16.65
2018-05-18T01:04:00.624Z,14.80
2018-05-18T01:04:34.065Z,16.27
2018-05-18T01:05:07.327Z,14.93
2018-05-18T01:05:40.606Z,14.55
2018-05-18T01:06:13.864Z,13.98
2018-05-18T01:06:47.137Z,16.25
2018-05-18T01:07:20.417Z,16.08
2018-05-18T01:07:53.750Z,16.23
2018-05-18T01:08:27.029Z,14.85
2018-05-18T01:09:01.081Z,17.75
2018-05-18T01:09:34.356Z,16.92
2018-05-18T01:10:07.637Z,19.35
2018-05-18T01:10:40.949Z,16.55
2018-05-18T01:11:14.217Z,19.15
2018-05-18T01:11:47.477Z,17.70
2018-05-18T01:12:20.758Z,16.73
2018-05-18T01:12:54.024Z,16.67
2018-05-18T01:13:27.292Z,14.60
2018-05-18T01:14:00.558Z,15.65
2018-05-18T01:14:34.598Z,19.83
2018-05-18T01:15:07.860Z,16.37
2018-05-18T01:15:41.132Z,13.90
2018-05-18T01:16:14.402Z,14.10
2018-05-18T01:16:48.456Z,18.37
2018-05-18T01:17:21.740Z,19.98
2018-05-18T01:17:55.031Z,10.30
2018-05-18T01:18:29.051Z,11.52
2018-05-18T01:19:03.080Z,16.58
2018-05-18T01:19:36.353Z,15.07
2018-05-18T01:20:09.616Z,13.98
2018-05-18T01:20:42.876Z,17.30
2018-05-18T01:21:16.183Z,18.58
2018-05-18T01:21:49.466Z,19.27
2018-05-18T01:22:22.759Z,18.05
2018-05-18T01:22:56.028Z,18.87
2018-05-18T01:23:29.315Z,16.65
2018-05-18T01:24:02.577Z,19.52
2018-05-18T01:24:35.868Z,15.73
2018-05-18T01:25:09.136Z,21.30
2018-05-18T01:25:42.423Z,18.67
2018-05-18T01:26:15.696Z,19.33
2018-05-18T01:26:48.968Z,19.98
2018-05-18T01:27:23.032Z,16.05
2018-05-18T01:27:56.291Z,14.45
2018-05-18T01:28:29.572Z,18.90
2018-05-18T01:29:02.873Z,13.60
2018-05-18T01:29:36.129Z,19.10
2018-05-18T01:30:09.402Z,15.73
2018-05-18T01:30:42.659Z,13.45
2018-05-18T01:31:15.925Z,16.00
2018-05-18T01:31:49.244Z,14.80
2018-05-18T01:32:22.516Z,13.57
2018-05-18T01:32:55.809Z,14.87
2018-05-18T01:33:29.080Z,15.02
2018-05-18T01:34:02.340Z,16.52
2018-05-18T01:34:35.620Z,15.70
2018-05-18T01:35:08.903Z,19.15
2018-05-18T01:35:42.180Z,17.05
2018-05-18T01:36:15.836Z,14.65
2018-05-18T01:36:49.069Z,17.58
2018-05-18T01:37:22.337Z,12.70
2018-05-18T01:37:55.615Z,20.30
2018-05-18T01:38:28.892Z,19.33
2018-05-18T01:39:02.161Z,18.62
2018-05-18T01:39:36.188Z,15.40
2018-05-18T01:40:09.461Z,14.50
2018-05-18T01:40:42.746Z,18.42
2018-05-18T01:41:16.029Z,21.23
2018-05-18T01:41:49.294Z,16.35
2018-05-18T01:42:22.569Z,13.77
2018-05-18T01:42:55.868Z,16.87
2018-05-18T01:43:29.133Z,18.87
2018-05-18T01:44:02.415Z,18.62
2018-05-18T01:44:35.694Z,15.27
2018-05-18T01:45:08.965Z,20.17
2018-05-18T01:45:43.008Z,17.80
2018-05-18T01:46:16.281Z,19.70
2018-05-18T01:46:49.557Z,13.35
2018-05-18T01:47:22.828Z,17.90
2018-05-18T01:47:56.118Z,19.70
2018-05-18T01:48:29.391Z,16.83
2018-05-18T01:49:02.661Z,18.37
2018-05-18T01:49:35.920Z,16.87
2018-05-18T01:50:09.200Z,13.50
2018-05-18T01:50:43.272Z,20.25
2018-05-18T01:51:17.304Z,17.02
2018-05-18T01:51:50.576Z,18.23
2018-05-18T01:52:24.616Z,19.15
2018-05-18T01:52:57.890Z,19.30
2018-05-18T01:53:31.157Z,14.60
2018-05-18T01:54:04.440Z,18.62
2018-05-18T01:54:37.716Z,20.30
2018-05-18T01:55:10.985Z,20.55
2018-05-18T01:55:44.260Z,13.85
2018-05-18T01:56:17.545Z,15.05
2018-05-18T01:56:50.810Z,17.80
2018-05-18T01:57:24.846Z,19.37
2018-05-18T01:57:58.133Z,15.27
2018-05-18T01:58:31.395Z,18.27
2018-05-18T01:59:04.665Z,16.15
2018-05-18T01:59:37.928Z,19.27
2018-05-18T02:00:11.984Z,15.93
2018-05-18T02:00:45.264Z,21.05
2018-05-18T02:01:18.539Z,13.60
2018-05-18T02:01:51.900Z,22.30
2018-05-18T02:02:25.175Z,18.15
2018-05-18T02:02:58.459Z,20.67
2018-05-18T02:03:31.736Z,16.70
2018-05-18T02:04:05.002Z,22.35
2018-05-18T02:04:38.277Z,17.87
2018-05-18T02:05:12.308Z,20.15
2018-05-18T02:05:45.592Z,19.10
2018-05-18T02:06:18.856Z,15.73
2018-05-18T02:06:52.133Z,21.12
2018-05-18T02:07:25.392Z,16.70
2018-05-18T02:07:59.428Z,14.60
2018-05-18T02:08:32.687Z,15.45
2018-05-18T02:09:06.737Z,19.20
2018-05-18T02:09:40.011Z,24.85
2018-05-18T02:10:13.292Z,18.80
2018-05-18T02:10:46.552Z,13.98
2018-05-18T02:11:20.815Z,14.32
2018-05-18T02:11:54.039Z,16.23
2018-05-18T02:12:27.307Z,22.23
2018-05-18T02:13:00.588Z,17.62
2018-05-18T02:13:33.857Z,14.27
2018-05-18T02:14:07.125Z,19.20
2018-05-18T02:14:40.396Z,18.77
2018-05-18T02:15:13.665Z,16.70
2018-05-18T02:15:47.738Z,20.02
2018-05-18T02:16:21.013Z,14.32
2018-05-18T02:16:54.279Z,18.92
2018-05-18T02:17:27.560Z,18.33
2018-05-18T02:18:00.853Z,16.50
2018-05-18T02:18:34.134Z,20.48
2018-05-18T02:19:07.405Z,17.27
2018-05-18T02:19:40.677Z,17.90
2018-05-18T02:20:13.951Z,22.50
2018-05-18T02:20:47.221Z,15.95
2018-05-18T02:21:20.500Z,18.80
2018-05-18T02:21:53.777Z,16.35
2018-05-18T02:22:27.036Z,19.45
2018-05-18T02:23:00.329Z,18.80
2018-05-18T02:23:33.617Z,15.88
2018-05-18T02:24:06.885Z,15.68
2018-05-18T02:24:40.156Z,20.83
2018-05-18T02:25:13.428Z,21.08
2018-05-18T02:25:46.688Z,14.55
2018-05-18T02:26:19.975Z,17.98
2018-05-18T02:26:53.525Z,18.60
2018-05-18T02:27:26.794Z,15.23
2018-05-18T02:28:00.850Z,13.27
2018-05-18T02:28:34.881Z,17.05
2018-05-18T02:29:08.151Z,14.43
2018-05-18T02:29:41.430Z,13.23
2018-05-18T02:30:14.706Z,16.77
2018-05-18T02:30:47.965Z,14.60
2018-05-18T02:31:21.993Z,20.73
2018-05-18T02:31:55.254Z,21.25
2018-05-18T02:32:28.530Z,17.25
2018-05-18T02:33:02.594Z,18.83
2018-05-18T02:33:35.861Z,16.12
2018-05-18T02:34:09.144Z,17.40
2018-05-18T02:34:42.417Z,17.23
2018-05-18T02:35:16.445Z,17.02
2018-05-18T02:35:49.713Z,20.40
2018-05-18T02:36:22.981Z,16.15
2018-05-18T02:36:57.020Z,13.68
2018-05-18T02:37:31.060Z,20.92
2018-05-18T02:38:04.346Z,14.38
2018-05-18T02:38:37.623Z,20.90
2018-05-18T02:39:10.889Z,18.08
2018-05-18T02:39:44.171Z,22.77
2018-05-18T02:40:17.427Z,12.35
2018-05-18T02:40:50.702Z,20.80
2018-05-18T02:41:24.732Z,17.75
2018-05-18T02:41:57.989Z,21.73
2018-05-18T02:42:31.249Z,11.70
2018-05-18T02:43:05.302Z,15.27
2018-05-18T02:43:39.332Z,17.02
2018-05-18T02:44:12.610Z,23.38
2018-05-18T02:44:45.884Z,22.58
2018-05-18T02:45:19.160Z,15.02
2018-05-18T02:45:52.437Z,17.33
2018-05-18T02:46:25.688Z,21.77
2018-05-18T02:46:58.961Z,17.65
2018-05-18T02:47:32.224Z,14.77
2018-05-18T02:48:05.496Z,20.25
2018-05-18T02:48:38.777Z,18.52
2018-05-18T02:49:12.052Z,19.27
2018-05-18T02:49:46.101Z,15.88
2018-05-18T02:50:19.376Z,16.42
2018-05-18T02:50:53.414Z,21.52
2018-05-18T02:51:26.685Z,15.65
2018-05-18T02:51:59.949Z,17.92
2018-05-18T02:52:33.229Z,15.38
2018-05-18T02:53:06.532Z,18.92
2018-05-18T02:53:39.803Z,22.23
2018-05-18T02:54:13.082Z,18.00
2018-05-18T02:54:46.336Z,19.37
2018-05-18T02:55:19.607Z,18.73
2018-05-18T02:55:52.874Z,13.98
2018-05-18T02:56:26.137Z,18.98
2018-05-18T02:56:59.420Z,16.58
2018-05-18T02:57:32.692Z,15.52
2018-05-18T02:58:06.729Z,17.52
2018-05-18T02:58:40.007Z,16.73
2018-05-18T02:59:13.294Z,18.52
2018-05-18T02:59:46.572Z,19.87
2018-05-18T03:00:19.837Z,20.12
2018-05-18T03:00:53.120Z,16.42
2018-05-18T03:01:26.390Z,23.12
2018-05-18T03:01:59.656Z,14.82
2018-05-18T03:02:32.941Z,22.10
2018-05-18T03:03:06.965Z,16.42
2018-05-18T03:03:40.252Z,16.75
2018-05-18T03:04:13.521Z,17.37
2018-05-18T03:04:46.785Z,18.42
2018-05-18T03:05:20.064Z,14.00
2018-05-18T03:05:53.344Z,16.15
2018-05-18T03:06:26.616Z,15.60
2018-05-18T03:06:59.884Z,17.17
2018-05-18T03:07:33.925Z,16.35
2018-05-18T03:08:07.189Z,21.90
2018-05-18T03:08:40.464Z,27.50
2018-05-18T03:09:13.745Z,20.92
2018-05-18T03:09:47.017Z,19.95
2018-05-18T03:10:20.288Z,24.85
2018-05-18T03:10:53.558Z,17.05
2018-05-18T03:11:27.581Z,23.05
2018-05-18T03:12:00.841Z,14.80
2018-05-18T03:12:34.116Z,20.10
2018-05-18T03:13:08.135Z,15.13
2018-05-18T03:13:41.425Z,21.00
2018-05-18T03:14:14.706Z,17.05
2018-05-18T03:14:47.965Z,17.42
2018-05-18T03:15:21.263Z,16.02
2018-05-18T03:15:54.553Z,15.50
2018-05-18T03:16:27.821Z,18.25
2018-05-18T03:17:01.103Z,19.30
2018-05-18T03:17:34.385Z,19.75
2018-05-18T03:18:07.664Z,16.10
2018-05-18T03:18:40.944Z,18.35
2018-05-18T03:19:14.228Z,20.30
2018-05-18T03:19:47.485Z,17.62
2018-05-18T03:20:21.515Z,18.55
2018-05-18T03:20:54.795Z,18.67
2018-05-18T03:21:28.067Z,15.98
2018-05-18T03:22:01.339Z,15.13
2018-05-18T03:22:34.613Z,20.88
2018-05-18T03:23:07.887Z,19.87
2018-05-18T03:23:41.160Z,17.48
2018-05-18T03:24:15.222Z,14.98
2018-05-18T03:24:48.483Z,18.85
2018-05-18T03:25:21.768Z,21.67
2018-05-18T03:25:55.037Z,15.55
2018-05-18T03:26:28.302Z,18.33
2018-05-18T03:27:01.584Z,18.77
2018-05-18T03:27:34.840Z,15.82
2018-05-18T03:28:08.873Z,20.77
2018-05-18T03:28:42.148Z,18.42
2018-05-18T03:29:15.414Z,19.52
2018-05-18T03:29:48.688Z,22.65
2018-05-18T03:30:21.965Z,23.35
2018-05-18T03:30:55.244Z,21.35
2018-05-18T03:31:28.509Z,18.17
2018-05-18T03:32:02.536Z,21.52
2018-05-18T03:32:35.805Z,19.95
2018-05-18T03:33:09.087Z,17.73
2018-05-18T03:33:42.376Z,21.85
2018-05-18T03:34:15.655Z,15.75
2018-05-18T03:34:48.917Z,18.87
2018-05-18T03:35:22.957Z,17.67
2018-05-18T03:35:56.222Z,17.15
2018-05-18T03:36:29.508Z,19.23
2018-05-18T03:37:02.776Z,20.75
2018-05-18T03:37:36.037Z,19.17
2018-05-18T03:38:09.316Z,23.48
2018-05-18T03:38:43.364Z,26.42
2018-05-18T03:39:16.623Z,15.45
2018-05-18T03:39:49.891Z,18.58
2018-05-18T03:40:23.177Z,14.70
2018-05-18T03:40:56.453Z,17.85
2018-05-18T03:41:29.723Z,20.25
2018-05-18T03:42:02.989Z,20.23
2018-05-18T03:42:37.027Z,17.75
2018-05-18T03:43:10.309Z,17.95
2018-05-18T03:43:43.598Z,22.62
2018-05-18T03:44:16.877Z,16.77
2018-05-18T03:44:50.478Z,19.12
2018-05-18T03:45:23.776Z,18.48
2018-05-18T03:45:57.042Z,16.95
2018-05-18T03:46:30.300Z,18.87
2018-05-18T03:47:03.593Z,23.27
2018-05-18T03:47:36.868Z,20.65
2018-05-18T03:48:10.151Z,21.50
2018-05-18T03:48:43.413Z,16.50
2018-05-18T03:49:16.696Z,19.50
2018-05-18T03:49:49.984Z,17.98
2018-05-18T03:50:23.257Z,20.23
2018-05-18T03:50:56.523Z,18.55
2018-05-18T03:51:29.790Z,19.23
2018-05-18T03:52:03.065Z,23.50
2018-05-18T03:52:36.329Z,22.83
2018-05-18T03:53:09.629Z,18.37
2018-05-18T03:53:42.907Z,21.65
2018-05-18T03:54:16.188Z,21.02
2018-05-18T03:54:49.468Z,20.17
2018-05-18T03:55:22.745Z,19.52
2018-05-18T03:55:56.776Z,20.45
2018-05-18T03:56:30.045Z,15.05
2018-05-18T03:57:03.317Z,14.70
2018-05-18T03:57:36.598Z,18.00
2018-05-18T03:58:09.893Z,20.92
2018-05-18T03:58:43.157Z,20.35
2018-05-18T03:59:16.440Z,18.48
2018-05-18T03:59:49.721Z,22.55
2018-05-18T04:00:22.992Z,20.75
2018-05-18T04:00:56.275Z,23.08
2018-05-18T04:01:41.452Z,19.48
2018-05-18T04:02:26.722Z,20.60
2018-05-18T04:03:23.612Z,20.52
2018-05-18T04:04:09.527Z,17.90
2018-05-18T04:04:54.549Z,24.75
2018-05-18T04:05:40.387Z,20.92
2018-05-18T04:06:25.584Z,15.55
2018-05-18T04:07:11.521Z,19.98
2018-05-18T04:07:56.550Z,16.17
2018-05-18T04:08:52.260Z,16.87
2018-05-18T04:09:25.577Z,25.65
2018-05-18T04:09:58.825Z,24.50
2018-05-18T04:10:32.096Z,18.08
2018-05-18T04:11:05.385Z,19.23
2018-05-18T04:11:38.655Z,20.12
2018-05-18T04:12:11.932Z,17.90
2018-05-18T04:12:45.218Z,25.08
2018-05-18T04:13:18.485Z,23.05
2018-05-18T04:13:51.747Z,20.85
2018-05-18T04:14:25.043Z,18.12
2018-05-18T04:14:58.316Z,22.65
2018-05-18T04:15:31.634Z,23.35
2018-05-18T04:16:04.893Z,19.12
2018-05-18T04:16:38.159Z,21.45
2018-05-18T04:17:11.432Z,20.27
2018-05-18T04:17:44.704Z,25.08
2018-05-18T04:18:17.984Z,22.50
2018-05-18T04:18:52.029Z,29.17
2018-05-18T04:19:25.324Z,22.77
2018-05-18T04:19:58.604Z,21.42
2018-05-18T04:20:32.176Z,21.42
2018-05-18T04:21:05.465Z,20.02
2018-05-18T04:21:38.736Z,21.37
2018-05-18T04:22:12.013Z,18.52
2018-05-18T04:22:46.060Z,20.05
2018-05-18T04:23:20.088Z,25.65
2018-05-18T04:23:53.360Z,24.52
2018-05-18T04:24:26.645Z,23.12
2018-05-18T04:24:59.935Z,19.98
2018-05-18T04:25:33.201Z,22.58
2018-05-18T04:26:06.464Z,22.10
2018-05-18T04:26:39.740Z,26.77
2018-05-18T04:27:13.768Z,24.10
2018-05-18T04:27:47.059Z,25.83
2018-05-18T04:28:20.533Z,22.00
2018-05-18T04:28:53.817Z,22.60
2018-05-18T04:29:27.103Z,25.02
2018-05-18T04:30:00.443Z,23.02
2018-05-18T04:30:33.693Z,19.73
2018-05-18T04:31:06.995Z,19.90
2018-05-18T04:31:41.043Z,20.83
2018-05-18T04:32:14.308Z,17.95
2018-05-18T04:32:47.584Z,22.95
2018-05-18T04:33:20.868Z,25.75
2018-05-18T04:33:54.161Z,24.15
2018-05-18T04:34:27.436Z,21.48
2018-05-18T04:35:00.738Z,19.23
2018-05-18T04:35:34.768Z,22.95
2018-05-18T04:36:08.805Z,24.87
2018-05-18T04:36:42.074Z,25.15
2018-05-18T04:37:15.353Z,23.48
2018-05-18T04:37:48.628Z,21.23
2018-05-18T04:38:22.667Z,24.15
2018-05-18T04:38:55.967Z,23.02
2018-05-18T04:39:29.248Z,21.00
2018-05-18T04:40:02.573Z,25.73
2018-05-18T04:40:37.490Z,22.20
2018-05-18T04:41:10.761Z,23.00
2018-05-18T04:41:44.797Z,23.83
2018-05-18T04:42:18.064Z,25.77
2018-05-18T04:42:51.340Z,19.52
2018-05-18T04:43:24.639Z,25.58
2018-05-18T04:43:57.921Z,28.95
2018-05-18T04:44:31.207Z,24.63
2018-05-18T04:45:04.513Z,20.52
2018-05-18T04:45:37.788Z,28.67
2018-05-18T04:46:11.089Z,25.92
2018-05-18T04:46:44.372Z,20.85
2018-05-18T04:47:18.410Z,19.30
2018-05-18T04:47:51.680Z,25.62
2018-05-18T04:48:24.970Z,20.05
2018-05-18T04:48:58.245Z,23.48
2018-05-18T04:49:31.529Z,21.70
2018-05-18T04:50:04.804Z,27.02
2018-05-18T04:50:38.105Z,23.58
2018-05-18T04:51:11.385Z,19.85
2018-05-18T04:51:44.661Z,23.27
2018-05-18T04:52:17.940Z,23.30
2018-05-18T04:52:51.216Z,19.35
2018-05-18T04:53:24.499Z,20.58
2018-05-18T04:53:57.793Z,27.27
2018-05-18T04:54:31.144Z,26.87
2018-05-18T04:55:04.456Z,25.55
2018-05-18T04:55:38.534Z,27.15
2018-05-18T04:56:11.812Z,24.27
2018-05-18T04:56:45.092Z,24.23
2018-05-18T04:57:18.354Z,24.58
2018-05-18T04:57:51.625Z,25.52
2018-05-18T04:58:24.909Z,26.20
2018-05-18T04:58:58.987Z,23.38
2018-05-18T04:59:32.257Z,20.08
2018-05-18T05:00:05.556Z,22.98
2018-05-18T05:00:39.592Z,24.12
2018-05-18T05:01:12.871Z,26.27
2018-05-18T05:01:46.165Z,21.10
2018-05-18T05:02:19.456Z,19.73
2018-05-18T05:02:53.054Z,22.15
2018-05-18T05:03:26.336Z,27.33
2018-05-18T05:03:59.621Z,26.85
2018-05-18T05:04:32.914Z,30.17
2018-05-18T05:05:06.187Z,23.10
2018-05-18T05:05:39.453Z,26.33
2018-05-18T05:06:12.716Z,29.70
2018-05-18T05:06:46.783Z,28.85
2018-05-18T05:07:20.056Z,28.98
2018-05-18T05:07:53.359Z,23.52
2018-05-18T05:08:26.654Z,25.65
2018-05-18T05:08:59.924Z,20.80
2018-05-18T05:09:33.192Z,26.27
2018-05-18T05:10:06.513Z,21.85
2018-05-18T05:10:39.772Z,25.10
2018-05-18T05:11:13.817Z,24.10
2018-05-18T05:11:47.868Z,20.85
2018-05-18T05:12:21.169Z,23.02
2018-05-18T05:12:54.436Z,22.15
2018-05-18T05:13:27.713Z,26.98
2018-05-18T05:14:01.773Z,23.38
2018-05-18T05:14:35.814Z,24.70
2018-05-18T05:15:09.107Z,26.25
2018-05-18T05:15:43.876Z,25.95
2018-05-18T05:16:17.149Z,24.27
2018-05-18T05:16:50.420Z,25.62
2018-05-18T05:17:23.693Z,25.37
2018-05-18T05:17:57.740Z,23.55
2018-05-18T05:18:31.013Z,21.83
2018-05-18T05:19:04.284Z,20.92
2018-05-18T05:19:37.583Z,27.02
2018-05-18T05:20:10.888Z,25.33
2018-05-18T05:20:44.173Z,28.60
2018-05-18T05:21:17.461Z,24.35
2018-05-18T05:21:50.745Z,25.65
2018-05-18T05:22:24.029Z,23.52
2018-05-18T05:22:57.306Z,24.40
2018-05-18T05:23:31.357Z,23.77
2018-05-18T05:24:04.628Z,25.35
2018-05-18T05:24:37.889Z,28.23
2018-05-18T05:25:11.181Z,27.83
2018-05-18T05:25:44.447Z,23.42
2018-05-18T05:26:17.718Z,25.75
2018-05-18T05:26:51.755Z,27.27
2018-05-18T05:27:25.024Z,24.52
2018-05-18T05:27:58.290Z,25.77
2018-05-18T05:28:31.573Z,25.98
2018-05-18T05:29:04.840Z,20.23
2018-05-18T05:29:38.109Z,20.75
2018-05-18T05:30:12.169Z,26.20
2018-05-18T05:30:45.514Z,24.98
2018-05-18T05:31:18.793Z,27.98
2018-05-18T05:31:52.064Z,23.27
2018-05-18T05:32:25.324Z,21.87
2018-05-18T05:32:58.590Z,23.35
2018-05-18T05:33:31.864Z,22.20
2018-05-18T05:34:05.136Z,24.92
2018-05-18T05:34:38.409Z,31.02
2018-05-18T05:35:11.687Z,27.80
2018-05-18T05:35:44.984Z,27.40
2018-05-18T05:36:18.268Z,23.42
2018-05-18T05:36:51.533Z,26.15
2018-05-18T05:37:25.576Z,25.70
2018-05-18T05:37:59.620Z,24.65
2018-05-18T05:38:33.656Z,30.15
2018-05-18T05:39:07.697Z,21.80
2018-05-18T05:39:40.965Z,23.20
2018-05-18T05:40:14.341Z,26.52
2018-05-18T05:40:47.637Z,21.50
2018-05-18T05:41:20.922Z,24.58
2018-05-18T05:41:54.200Z,23.75
2018-05-18T05:42:27.473Z,22.83
2018-05-18T05:43:00.741Z,23.60
2018-05-18T05:43:34.782Z,25.58
2018-05-18T05:44:08.053Z,19.27
2018-05-18T05:44:41.555Z,22.48
2018-05-18T05:45:14.839Z,28.48
2018-05-18T05:45:48.129Z,21.70
2018-05-18T05:46:21.404Z,20.92
2018-05-18T05:46:54.734Z,24.25
2018-05-18T05:47:27.964Z,25.12
2018-05-18T05:48:01.248Z,23.38
2018-05-18T05:48:34.556Z,23.12
2018-05-18T05:49:07.820Z,26.05
2018-05-18T05:49:41.093Z,21.50
2018-05-18T05:50:14.364Z,20.00
2018-05-18T05:50:47.654Z,25.58
2018-05-18T05:51:20.927Z,21.23
2018-05-18T05:51:54.378Z,25.50
2018-05-18T05:52:27.639Z,27.33
2018-05-18T05:53:00.922Z,27.20
2018-05-18T05:53:34.208Z,25.70
2018-05-18T05:54:07.481Z,22.90
2018-05-18T05:54:40.771Z,27.65
2018-05-18T05:55:14.061Z,28.42
2018-05-18T05:55:47.373Z,24.30
2018-05-18T05:56:20.653Z,23.52
2018-05-18T05:56:53.932Z,23.48
2018-05-18T05:57:27.205Z,25.52
2018-05-18T05:58:00.484Z,23.60
2018-05-18T05:58:33.948Z,23.67
2018-05-18T05:59:07.048Z,27.10
2018-05-18T05:59:40.316Z,22.02
2018-05-18T06:00:13.600Z,27.10
2018-05-18T06:00:46.883Z,25.80
2018-05-18T06:01:20.177Z,27.92
2018-05-18T06:01:53.457Z,24.55
2018-05-18T06:02:26.737Z,27.13
2018-05-18T06:03:00.019Z,25.62
2018-05-18T06:03:33.300Z,21.83
2018-05-18T06:04:06.587Z,28.25
2018-05-18T06:04:39.857Z,27.92
2018-05-18T06:05:13.128Z,20.85
2018-05-18T06:05:46.432Z,23.83
2018-05-18T06:06:19.732Z,22.83
2018-05-18T06:06:53.768Z,22.52
2018-05-18T06:07:27.048Z,20.58
2018-05-18T06:08:00.328Z,24.90
2018-05-18T06:08:33.600Z,18.70
2018-05-18T06:09:06.891Z,22.50
2018-05-18T06:09:40.161Z,22.92
2018-05-18T06:10:13.428Z,23.92
2018-05-18T06:10:46.712Z,27.20
2018-05-18T06:11:20.000Z,27.08
2018-05-18T06:11:53.289Z,21.55
2018-05-18T06:12:26.565Z,24.20
2018-05-18T06:12:59.836Z,22.73
2018-05-18T06:13:33.113Z,26.73
2018-05-18T06:14:06.384Z,27.80
2018-05-18T06:14:39.677Z,23.58
2018-05-18T06:15:12.947Z,22.13
2018-05-18T06:15:46.227Z,27.17
2018-05-18T06:16:19.525Z,24.80
2018-05-18T06:16:52.803Z,24.23
2018-05-18T06:17:26.082Z,24.98
2018-05-18T06:17:59.360Z,21.75
2018-05-18T06:18:32.634Z,26.85
2018-05-18T06:19:05.901Z,20.12
2018-05-18T06:19:39.173Z,24.35
2018-05-18T06:20:12.478Z,23.27
2018-05-18T06:20:45.756Z,27.75
2018-05-18T06:21:19.044Z,25.00
2018-05-18T06:21:52.367Z,27.02
2018-05-18T06:22:25.640Z,22.60
2018-05-18T06:22:58.921Z,21.60
2018-05-18T06:23:32.205Z,21.00
2018-05-18T06:24:05.471Z,23.10
2018-05-18T06:24:38.760Z,25.25
2018-05-18T06:25:12.024Z,17.65
2018-05-18T06:25:45.298Z,17.48
2018-05-18T06:26:18.592Z,24.75
2018-05-18T06:26:51.876Z,21.92
2018-05-18T06:27:25.213Z,21.92
2018-05-18T06:27:58.488Z,29.00
2018-05-18T06:28:31.767Z,24.65
2018-05-18T06:29:05.806Z,25.50
2018-05-18T06:29:39.071Z,20.15
2018-05-18T06:30:12.340Z,24.23
2018-05-18T06:30:45.622Z,23.58
2018-05-18T06:31:18.916Z,27.98
2018-05-18T06:31:53.109Z,24.30
2018-05-18T06:32:26.401Z,21.67
2018-05-18T06:32:59.672Z,21.50
2018-05-18T06:33:32.983Z,22.55
2018-05-18T06:34:06.219Z,23.33
2018-05-18T06:34:39.512Z,24.60
2018-05-18T06:35:13.083Z,22.45
2018-05-18T06:35:46.301Z,25.25
2018-05-18T06:36:19.597Z,28.40
2018-05-18T06:36:53.639Z,19.70
2018-05-18T06:37:26.908Z,19.55
2018-05-18T06:38:00.960Z,24.70
2018-05-18T06:38:34.232Z,27.50
2018-05-18T06:39:08.280Z,24.85
2018-05-18T06:39:42.333Z,24.98
2018-05-18T06:40:15.613Z,22.80
2018-05-18T06:40:48.897Z,23.90
2018-05-18T06:41:23.053Z,22.13
2018-05-18T06:41:56.319Z,21.48
2018-05-18T06:42:29.594Z,20.25
2018-05-18T06:43:03.629Z,23.15
2018-05-18T06:43:36.916Z,24.30
2018-05-18T06:44:10.189Z,19.52
2018-05-18T06:44:43.467Z,22.25
2018-05-18T06:45:16.742Z,22.55
2018-05-18T06:45:50.015Z,28.35
2018-05-18T06:46:23.304Z,27.67
2018-05-18T06:46:56.578Z,21.05
2018-05-18T06:47:29.873Z,26.45
2018-05-18T06:48:03.141Z,25.20
2018-05-18T06:48:36.412Z,19.90
2018-05-18T06:49:09.679Z,20.73
2018-05-18T06:49:42.972Z,23.98
2018-05-18T06:50:16.248Z,18.92
2018-05-18T06:50:50.309Z,20.25
2018-05-18T06:51:23.589Z,26.50
2018-05-18T06:51:56.889Z,22.25
2018-05-18T06:52:31.016Z,26.37
2018-05-18T06:53:04.196Z,19.10
2018-05-18T06:53:37.471Z,20.12
2018-05-18T06:54:10.752Z,24.45
2018-05-18T06:54:44.028Z,25.45
2018-05-18T06:55:17.299Z,26.27
2018-05-18T06:55:50.573Z,19.87
2018-05-18T06:56:24.615Z,21.08
2018-05-18T06:56:57.898Z,22.25
2018-05-18T06:57:31.189Z,18.08
2018-05-18T06:58:04.456Z,19.58
2018-05-18T06:58:37.731Z,21.80
2018-05-18T06:59:11.016Z,23.52
2018-05-18T06:59:44.300Z,21.35
2018-05-18T07:00:17.593Z,29.23
2018-05-18T07:00:51.640Z,22.48
2018-05-18T07:01:24.921Z,26.33
2018-05-18T07:01:58.208Z,17.85
2018-05-18T07:02:31.482Z,23.73
2018-05-18T07:03:05.520Z,19.80
2018-05-18T07:03:38.801Z,19.62
2018-05-18T07:04:12.077Z,21.25
2018-05-18T07:04:45.353Z,23.58
2018-05-18T07:05:19.418Z,21.98
2018-05-18T07:05:52.692Z,21.87
2018-05-18T07:06:25.970Z,21.33
2018-05-18T07:06:59.255Z,20.35
2018-05-18T07:07:32.531Z,17.30
2018-05-18T07:08:06.588Z,21.08
2018-05-18T07:08:39.855Z,24.90
2018-05-18T07:09:13.129Z,18.30
2018-05-18T07:09:46.442Z,20.30
2018-05-18T07:10:19.718Z,19.20
2018-05-18T07:10:53.000Z,18.17
2018-05-18T07:11:26.266Z,20.40
2018-05-18T07:11:59.564Z,21.95
2018-05-18T07:12:32.847Z,18.25